Time;durP1;ratioP1;P1;durP2;ratioP2;P2;SDS_P1;SDS_P2;PMS_P1;PMS_P2;Temp;Humidity;BMP_temperature;BMP_pressure;BME280_temperature;BME280_humidity;BME280_pressure;Samples;Min_cycle;Max_cycle;Signal;HPM_P1;HPM_P2
2021/06/23 00:01:38;;;;;;;;;;;14.00;77.40;;;;;;5014045;28;20294;-67
2021/06/23 00:04:04;;;;;;;;;;;14.00;77.50;;;;;;4995759;28;20037;-67
2021/06/23 00:06:29;;;;;;;;;;;14.00;77.60;;;;;;4996597;28;19917;-68
2021/06/23 00:08:55;;;;;;;;;;;14.00;77.80;;;;;;5013378;28;19956;-66
2021/06/23 00:11:21;;;;;;;;;;;14.10;78.10;;;;;;5013804;28;19918;-67
2021/06/23 00:13:49;;;;;;;;;;;14.10;78.20;;;;;;4996137;28;19917;-67
2021/06/23 00:16:15;;;;;;;;;;;14.20;78.30;;;;;;4996053;28;19987;-66
2021/06/23 00:18:40;;;;;;;;;;;14.20;78.20;;;;;;5013438;28;20365;-66
2021/06/23 00:21:06;;;;;;;;;;;14.20;78.00;;;;;;5012969;28;19941;-68
2021/06/23 00:23:32;;;;;;;;;;;14.30;78.10;;;;;;4996168;28;19949;-66
2021/06/23 00:25:57;;;;;;;;;;;14.30;78.10;;;;;;5013457;28;20011;-67
2021/06/23 00:28:24;;;;;;;;;;;14.30;78.10;;;;;;5012661;28;19924;-66
2021/06/23 00:30:49;;;;;;;;;;;14.30;78.20;;;;;;5013503;28;19988;-66
2021/06/23 00:33:16;;;;;;;;;;;14.40;78.20;;;;;;4996093;28;20401;-67
2021/06/23 00:35:42;;;;;;;;;;;14.40;78.10;;;;;;5012926;28;19922;-68
2021/06/23 00:38:08;;;;;;;;;;;14.40;78.20;;;;;;5013154;28;19924;-68
2021/06/23 00:40:33;;;;;;;;;;;14.40;78.20;;;;;;5028892;22;20018;-63
2021/06/23 00:42:59;;;;;;;;;;;14.40;78.20;;;;;;5034277;28;20441;-63
2021/06/23 00:45:27;;;;;;;;;;;14.40;78.10;;;;;;5035105;28;19916;-63
2021/06/23 00:47:54;;;;;;;;;;;14.40;78.10;;;;;;5034240;28;19967;-63
2021/06/23 00:50:23;;;;;;;;;;;14.40;77.90;;;;;;5034668;28;19921;-63
2021/06/23 00:53:18;;;;;;;;;;;14.40;78.10;;;;;;5014881;28;19917;-63
2021/06/23 00:55:45;;;;;;;;;;;14.50;78.20;;;;;;5032827;28;19921;-63
2021/06/23 00:58:13;;;;;;;;;;;14.50;78.20;;;;;;5014256;28;19922;-63
2021/06/23 01:00:39;;;;;;;;;;;14.50;78.20;;;;;;5014825;28;19933;-63
2021/06/23 01:03:06;;;;;;;;;;;14.50;78.10;;;;;;5014853;28;19917;-63
2021/06/23 01:05:35;;;;;;;;;;;14.60;78.20;;;;;;5032062;28;19948;-63
2021/06/23 01:08:04;;;;;;;;;;;14.50;78.20;;;;;;5014530;28;19992;-63
2021/06/23 01:10:31;;;;;;;;;;;14.60;78.40;;;;;;5031933;28;19917;-63
2021/06/23 01:13:25;;;;;;;;;;;14.60;78.30;;;;;;5014606;28;20004;-63
2021/06/23 01:15:58;;;;;;;;;;;14.60;78.20;;;;;;5014220;28;20361;-64
2021/06/23 01:18:24;;;;;;;;;;;14.60;78.30;;;;;;5031862;28;19925;-63
2021/06/23 01:20:51;;;;;;;;;;;14.60;78.40;;;;;;4997585;28;19921;-62
2021/06/23 01:23:17;;;;;;;;;;;14.60;78.50;;;;;;5032134;28;19917;-62
2021/06/23 01:25:43;;;;;;;;;;;14.60;78.50;;;;;;5032345;28;19917;-63
2021/06/23 01:28:09;;;;;;;;;;;14.60;78.40;;;;;;5031328;28;19917;-62
2021/06/23 01:30:43;;;;;;;;;;;14.60;78.50;;;;;;5032025;28;19923;-63
2021/06/23 01:33:29;;;;;;;;;;;14.60;79.00;;;;;;5014206;28;19970;-63
2021/06/23 01:35:55;;;;;;;;;;;14.60;78.60;;;;;;5032083;28;19917;-63
2021/06/23 01:38:20;;;;;;;;;;;14.60;78.60;;;;;;5013620;28;20365;-62
2021/06/23 01:40:46;;;;;;;;;;;14.70;78.70;;;;;;5031681;28;20012;-63
2021/06/23 01:43:12;;;;;;;;;;;14.70;78.80;;;;;;5031804;28;20408;-62
2021/06/23 01:45:38;;;;;;;;;;;14.70;78.80;;;;;;5013760;28;20309;-63
2021/06/23 01:48:05;;;;;;;;;;;14.70;78.80;;;;;;5013677;28;19967;-63
2021/06/23 01:50:31;;;;;;;;;;;14.70;78.80;;;;;;5013452;28;19984;-62
2021/06/23 01:52:59;;;;;;;;;;;14.70;78.90;;;;;;5013318;28;19999;-63
2021/06/23 01:55:29;;;;;;;;;;;14.70;79.10;;;;;;5013979;28;19917;-62
2021/06/23 01:57:58;;;;;;;;;;;14.70;79.20;;;;;;5030848;28;19960;-63
2021/06/23 02:00:26;;;;;;;;;;;14.70;79.20;;;;;;5013767;28;19951;-63
2021/06/23 02:02:59;;;;;;;;;;;14.70;79.30;;;;;;5031161;28;19924;-62
2021/06/23 02:05:42;;;;;;;;;;;14.70;79.40;;;;;;5013982;28;19924;-62
2021/06/23 02:08:11;;;;;;;;;;;14.70;79.50;;;;;;5013303;28;19917;-62
2021/06/23 02:10:46;;;;;;;;;;;14.70;79.60;;;;;;5013824;28;20000;-62
2021/06/23 02:13:33;;;;;;;;;;;14.70;79.60;;;;;;5031103;28;19953;-62
2021/06/23 02:16:31;;;;;;;;;;;14.70;79.70;;;;;;5014184;28;20400;-62
2021/06/23 02:19:03;;;;;;;;;;;14.70;79.80;;;;;;5013416;28;19952;-63
2021/06/23 02:21:46;;;;;;;;;;;14.70;79.80;;;;;;5013301;28;19925;-62
2021/06/23 02:24:12;;;;;;;;;;;14.70;80.10;;;;;;5031447;28;19917;-63
2021/06/23 02:26:40;;;;;;;;;;;14.70;80.00;;;;;;5013043;28;19917;-62
2021/06/23 02:29:06;;;;;;;;;;;14.70;80.10;;;;;;5031136;28;19917;-63
2021/06/23 02:31:35;;;;;;;;;;;14.70;80.20;;;;;;5013647;28;19917;-62
2021/06/23 02:34:03;;;;;;;;;;;14.70;80.30;;;;;;5013207;28;19917;-62
2021/06/23 02:36:40;;;;;;;;;;;14.70;80.40;;;;;;5013489;28;19917;-63
2021/06/23 02:39:06;;;;;;;;;;;14.70;80.40;;;;;;5030860;28;19917;-63
2021/06/23 02:41:33;;;;;;;;;;;14.70;80.40;;;;;;5013340;28;19967;-63
2021/06/23 02:43:59;;;;;;;;;;;14.70;80.60;;;;;;5013062;28;20340;-63
2021/06/23 02:46:30;;;;;;;;;;;14.70;80.80;;;;;;5031235;28;19966;-63
2021/06/23 02:49:07;;;;;;;;;;;14.70;80.90;;;;;;5012976;28;20430;-62
2021/06/23 02:51:39;;;;;;;;;;;14.70;81.00;;;;;;5013495;28;19917;-62
2021/06/23 02:54:07;;;;;;;;;;;14.70;81.10;;;;;;5012934;28;19917;-62
2021/06/23 02:56:51;;;;;;;;;;;14.70;81.30;;;;;;5013259;28;19917;-63
2021/06/23 02:59:20;;;;;;;;;;;14.70;81.30;;;;;;5012999;28;20019;-63
2021/06/23 03:01:49;;;;;;;;;;;14.70;81.40;;;;;;5031090;28;19925;-63
2021/06/23 03:04:20;;;;;;;;;;;14.70;81.70;;;;;;5032977;28;20389;-63
2021/06/23 03:07:07;;;;;;;;;;;14.80;81.80;;;;;;5032747;28;19917;-63
2021/06/23 03:09:33;;;;;;;;;;;14.70;81.80;;;;;;5033692;28;19979;-62
2021/06/23 03:12:16;;;;;;;;;;;14.80;82.00;;;;;;5016733;28;19921;-62
2021/06/23 03:15:00;;;;;;;;;;;14.80;81.90;;;;;;5034384;28;19951;-62
2021/06/23 03:17:26;;;;;;;;;;;14.80;82.00;;;;;;5016512;28;20387;-63
2021/06/23 03:19:52;;;;;;;;;;;14.80;81.90;;;;;;5034178;28;19918;-62
2021/06/23 03:22:18;;;;;;;;;;;14.80;82.10;;;;;;5016581;28;19922;-62
2021/06/23 03:24:44;;;;;;;;;;;14.70;82.40;;;;;;5034560;28;19917;-62
2021/06/23 03:27:10;;;;;;;;;;;14.70;82.70;;;;;;5015845;28;19917;-62
2021/06/23 03:29:37;;;;;;;;;;;14.70;82.80;;;;;;5016761;28;19917;-62
2021/06/23 03:32:07;;;;;;;;;;;14.70;82.90;;;;;;5016059;28;19940;-62
2021/06/23 03:34:36;;;;;;;;;;;14.70;82.90;;;;;;5016508;28;19918;-63
2021/06/23 03:37:03;;;;;;;;;;;14.70;83.30;;;;;;5033896;28;19917;-63
2021/06/23 03:39:32;;;;;;;;;;;14.70;83.40;;;;;;5015979;28;19949;-64
2021/06/23 03:42:03;;;;;;;;;;;14.80;83.70;;;;;;5016153;28;19967;-62
2021/06/23 03:44:28;;;;;;;;;;;14.80;83.70;;;;;;5015910;28;19921;-62
2021/06/23 03:46:55;;;;;;;;;;;14.90;83.70;;;;;;5016008;28;20381;-63
2021/06/23 03:49:22;;;;;;;;;;;14.90;83.60;;;;;;5016197;28;19917;-63
2021/06/23 03:51:48;;;;;;;;;;;14.90;83.70;;;;;;5015666;28;19917;-63
2021/06/23 03:54:13;;;;;;;;;;;14.90;83.90;;;;;;5033975;28;20020;-63
2021/06/23 03:56:44;;;;;;;;;;;14.90;83.90;;;;;;5015485;28;19925;-62
2021/06/23 03:59:10;;;;;;;;;;;15.00;83.90;;;;;;4999773;28;20003;-63
2021/06/23 04:01:36;;;;;;;;;;;15.00;83.90;;;;;;4999399;28;20389;-63
2021/06/23 04:04:20;;;;;;;;;;;15.00;83.80;;;;;;5001961;28;19986;-63
2021/06/23 04:06:58;;;;;;;;;;;15.00;83.80;;;;;;5032744;28;19925;-63
2021/06/23 04:09:23;;;;;;;;;;;15.00;84.00;;;;;;4988500;28;19917;-63
2021/06/23 04:11:57;;;;;;;;;;;15.00;84.30;;;;;;4995069;28;20397;-62
2021/06/23 04:14:23;;;;;;;;;;;15.00;84.10;;;;;;5012218;28;20373;-62
2021/06/23 04:16:53;;;;;;;;;;;15.00;84.40;;;;;;5013142;28;19914;-62
2021/06/23 04:19:19;;;;;;;;;;;15.00;84.40;;;;;;5013490;28;19959;-62
2021/06/23 04:21:52;;;;;;;;;;;15.00;84.40;;;;;;4980511;28;20463;-63
2021/06/23 04:24:18;;;;;;;;;;;15.10;84.50;;;;;;5013571;28;20020;-63
2021/06/23 04:26:44;;;;;;;;;;;15.10;84.60;;;;;;5012912;28;20284;-63
2021/06/23 04:29:12;;;;;;;;;;;15.10;84.40;;;;;;5013358;28;19918;-63
2021/06/23 04:31:39;;;;;;;;;;;15.20;84.60;;;;;;4995666;28;20385;-62
2021/06/23 04:34:05;;;;;;;;;;;15.20;84.60;;;;;;5011595;28;19964;-63
2021/06/23 04:36:31;;;;;;;;;;;15.20;84.50;;;;;;4979511;28;19949;-63
2021/06/23 04:38:57;;;;;;;;;;;15.20;84.40;;;;;;5012649;28;19987;-63
2021/06/23 04:41:23;;;;;;;;;;;15.20;84.50;;;;;;5012903;28;19921;-63
2021/06/23 04:43:50;;;;;;;;;;;15.20;84.90;;;;;;4995582;28;19948;-63
2021/06/23 04:46:16;;;;;;;;;;;15.30;85.00;;;;;;5011325;28;20389;-62
2021/06/23 04:48:42;;;;;;;;;;;15.40;85.10;;;;;;5011469;28;19944;-62
2021/06/23 04:51:17;;;;;;;;;;;15.50;84.80;;;;;;5011246;28;19957;-62
2021/06/23 04:53:43;;;;;;;;;;;15.50;85.00;;;;;;4979490;28;19924;-62
2021/06/23 04:56:09;;;;;;;;;;;15.60;85.20;;;;;;5012947;28;20123;-62
2021/06/23 04:58:41;;;;;;;;;;;15.70;85.20;;;;;;5011026;28;19918;-63
2021/06/23 05:01:09;;;;;;;;;;;15.80;85.00;;;;;;5012610;28;19922;-63
2021/06/23 05:03:42;;;;;;;;;;;15.90;84.30;;;;;;5011159;28;19944;-63
2021/06/23 05:06:07;;;;;;;;;;;16.00;84.50;;;;;;5012665;28;19922;-63
2021/06/23 05:08:33;;;;;;;;;;;16.00;84.10;;;;;;5011931;28;19924;-63
2021/06/23 05:10:58;;;;;;;;;;;16.00;84.40;;;;;;5012468;28;20020;-63
2021/06/23 05:13:25;;;;;;;;;;;16.10;84.90;;;;;;5012481;28;19918;-62
2021/06/23 05:15:51;;;;;;;;;;;16.30;85.10;;;;;;5012153;28;19952;-63
2021/06/23 05:18:18;;;;;;;;;;;16.50;84.50;;;;;;4994612;28;19918;-63
2021/06/23 05:20:43;;;;;;;;;;;16.50;83.90;;;;;;5012371;28;19979;-63
2021/06/23 05:23:09;;;;;;;;;;;16.60;83.90;;;;;;5011950;28;20386;-64
2021/06/23 05:25:34;;;;;;;;;;;16.70;83.90;;;;;;5012342;28;20381;-63
2021/06/23 05:28:00;;;;;;;;;;;16.90;83.80;;;;;;5008619;28;19967;-63
2021/06/23 05:30:26;;;;;;;;;;;17.10;83.40;;;;;;5009378;28;19921;-63
2021/06/23 05:32:52;;;;;;;;;;;17.20;83.90;;;;;;5011261;28;20026;-63
2021/06/23 05:35:18;;;;;;;;;;;17.40;82.90;;;;;;5010094;28;19913;-63
2021/06/23 05:37:45;;;;;;;;;;;17.30;81.60;;;;;;5011459;28;20021;-63
2021/06/23 05:40:10;;;;;;;;;;;17.40;82.30;;;;;;5011058;28;19923;-63
2021/06/23 05:42:36;;;;;;;;;;;17.60;82.20;;;;;;5011357;28;20349;-63
2021/06/23 05:45:02;;;;;;;;;;;17.70;82.10;;;;;;5012014;28;19917;-63
2021/06/23 05:47:27;;;;;;;;;;;17.80;81.40;;;;;;5011191;28;19918;-63
2021/06/23 05:49:53;;;;;;;;;;;17.80;81.30;;;;;;5011775;28;20353;-63
2021/06/23 05:52:18;;;;;;;;;;;17.80;80.00;;;;;;5011938;28;19953;-63
2021/06/23 05:54:44;;;;;;;;;;;17.70;79.30;;;;;;5011543;28;19917;-63
2021/06/23 05:57:09;;;;;;;;;;;17.60;79.40;;;;;;5011651;28;19925;-63
2021/06/23 05:59:35;;;;;;;;;;;17.60;79.90;;;;;;5011831;28;19918;-63
2021/06/23 06:02:01;;;;;;;;;;;17.80;79.70;;;;;;4993427;28;19922;-63
2021/06/23 06:04:26;;;;;;;;;;;17.90;79.20;;;;;;5011729;28;19924;-63
2021/06/23 06:06:52;;;;;;;;;;;17.90;78.90;;;;;;5011399;28;20028;-63
2021/06/23 06:09:17;;;;;;;;;;;17.90;78.70;;;;;;5011385;28;19921;-63
2021/06/23 06:11:43;;;;;;;;;;;18.20;80.20;;;;;;5011353;28;19924;-63
2021/06/23 06:14:08;;;;;;;;;;;19.00;82.30;;;;;;5011344;28;20004;-63
2021/06/23 06:16:34;;;;;;;;;;;19.70;80.10;;;;;;5011653;28;19968;-63
2021/06/23 06:18:59;;;;;;;;;;;20.00;77.90;;;;;;5011381;28;20012;-63
2021/06/23 06:21:25;;;;;;;;;;;20.00;75.00;;;;;;5010985;28;20385;-63
2021/06/23 06:23:51;;;;;;;;;;;19.70;73.90;;;;;;5011671;28;19979;-63
2021/06/23 06:26:16;;;;;;;;;;;19.50;73.80;;;;;;5011639;28;20332;-63
2021/06/23 06:28:42;;;;;;;;;;;19.30;72.70;;;;;;5009387;28;19918;-63
2021/06/23 06:31:07;;;;;;;;;;;19.20;73.80;;;;;;5011531;28;19976;-63
2021/06/23 06:33:33;;;;;;;;;;;19.40;74.80;;;;;;5011160;28;19918;-63
2021/06/23 06:35:59;;;;;;;;;;;19.70;74.80;;;;;;5011592;28;19923;-64
2021/06/23 06:38:24;;;;;;;;;;;20.30;75.60;;;;;;5012894;28;20000;-63
2021/06/23 06:40:53;;;;;;;;;;;20.90;75.30;;;;;;5013154;28;20337;-63
2021/06/23 06:43:18;;;;;;;;;;;21.20;71.90;;;;;;5012001;28;20404;-63
2021/06/23 06:45:46;;;;;;;;;;;21.00;69.10;;;;;;5012878;28;19981;-63
2021/06/23 06:48:12;;;;;;;;;;;20.60;68.60;;;;;;5014253;28;19921;-63
2021/06/23 06:50:37;;;;;;;;;;;20.20;68.60;;;;;;5014996;28;19991;-63
2021/06/23 06:53:03;;;;;;;;;;;19.90;68.90;;;;;;5014824;28;20362;-63
2021/06/23 06:55:28;;;;;;;;;;;19.70;69.20;;;;;;5014990;28;19967;-63
2021/06/23 06:57:55;;;;;;;;;;;19.60;69.30;;;;;;4997036;28;19924;-63
2021/06/23 07:00:21;;;;;;;;;;;19.50;69.50;;;;;;5014535;28;19925;-62
2021/06/23 07:02:47;;;;;;;;;;;19.40;69.00;;;;;;5014351;28;19933;-63
2021/06/23 07:05:13;;;;;;;;;;;19.30;68.70;;;;;;5014939;28;19917;-63
2021/06/23 07:07:39;;;;;;;;;;;19.20;69.10;;;;;;5013156;28;20028;-63
2021/06/23 07:10:05;;;;;;;;;;;19.20;69.70;;;;;;5014987;28;20366;-63
2021/06/23 07:12:31;;;;;;;;;;;19.30;69.70;;;;;;5014046;28;19925;-63
2021/06/23 07:14:57;;;;;;;;;;;19.40;69.70;;;;;;4997179;28;19921;-63
2021/06/23 07:17:23;;;;;;;;;;;19.50;69.10;;;;;;5014611;28;20017;-63
2021/06/23 07:19:48;;;;;;;;;;;19.50;69.10;;;;;;5013083;28;19933;-63
2021/06/23 07:22:14;;;;;;;;;;;19.60;68.80;;;;;;5012901;28;20329;-63
2021/06/23 07:24:40;;;;;;;;;;;19.80;68.90;;;;;;5013153;28;19943;-63
2021/06/23 07:27:05;;;;;;;;;;;20.00;69.30;;;;;;5013014;28;19967;-63
2021/06/23 07:29:31;;;;;;;;;;;20.60;69.90;;;;;;5014196;28;20469;-64
2021/06/23 07:32:14;;;;;;;;;;;22.90;77.10;;;;;;5013537;28;19918;-64
2021/06/23 07:37:12;;;;;;;;;;;28.40;69.60;;;;;;5013725;28;19948;-64
2021/06/23 07:39:38;;;;;;;;;;;30.40;63.90;;;;;;5014075;28;19996;-64
2021/06/23 07:42:05;;;;;;;;;;;31.90;59.10;;;;;;5013542;28;20021;-65
2021/06/23 07:44:37;;;;;;;;;;;33.00;55.70;;;;;;5014287;28;19913;-64
2021/06/23 07:47:09;;;;;;;;;;;33.90;51.10;;;;;;5014015;28;20348;-64
2021/06/23 07:49:37;;;;;;;;;;;34.60;48.40;;;;;;5012679;28;19918;-65
2021/06/23 07:52:17;;;;;;;;;;;35.30;46.90;;;;;;5013912;28;19918;-62
2021/06/23 08:10:54;;;;;;;;;;;32.70;36.10;;;;;;5013512;28;19948;-64
2021/06/23 08:13:19;;;;;;;;;;;31.60;36.60;;;;;;5012965;28;19963;-64
2021/06/23 08:15:46;;;;;;;;;;;30.70;38.00;;;;;;5012945;28;19929;-64
2021/06/23 08:18:14;;;;;;;;;;;30.00;37.90;;;;;;5013373;28;20281;-64
2021/06/23 08:20:40;;;;;;;;;;;29.30;38.10;;;;;;5012677;28;19917;-64
2021/06/23 08:23:06;;;;;;;;;;;28.50;37.70;;;;;;5012307;28;19917;-64
2021/06/23 08:25:32;;;;;;;;;;;27.40;38.50;;;;;;5012965;28;20285;-64
2021/06/23 08:27:57;;;;;;;;;;;26.50;39.50;;;;;;5012982;28;19922;-64
2021/06/23 08:30:23;;;;;;;;;;;25.60;40.30;;;;;;5013138;28;20353;-64
2021/06/23 08:32:49;;;;;;;;;;;24.80;41.20;;;;;;5012730;28;20008;-64
2021/06/23 08:35:15;;;;;;;;;;;24.00;42.20;;;;;;5013222;28;20321;-63
2021/06/23 08:37:41;;;;;;;;;;;23.40;43.40;;;;;;5011593;28;19972;-63
2021/06/23 08:40:08;;;;;;;;;;;23.00;44.50;;;;;;5011352;28;19917;-63
2021/06/23 08:42:34;;;;;;;;;;;22.60;45.20;;;;;;5012860;28;19925;-64
2021/06/23 08:44:59;;;;;;;;;;;22.20;46.10;;;;;;5012585;28;19930;-64
2021/06/23 08:47:25;;;;;;;;;;;21.90;47.00;;;;;;5012777;28;20377;-64
2021/06/23 08:49:51;;;;;;;;;;;21.70;47.70;;;;;;5012877;28;19944;-64
2021/06/23 08:52:16;;;;;;;;;;;21.50;48.30;;;;;;5012419;28;19932;-64
2021/06/23 08:54:42;;;;;;;;;;;21.40;49.30;;;;;;5012683;28;19924;-64
2021/06/23 08:57:09;;;;;;;;;;;21.50;50.10;;;;;;4994340;28;19918;-64
2021/06/23 08:59:35;;;;;;;;;;;21.50;50.50;;;;;;5012276;28;19928;-63
2021/06/23 09:02:01;;;;;;;;;;;21.60;51.10;;;;;;5012414;28;19949;-63
2021/06/23 09:04:27;;;;;;;;;;;21.70;51.20;;;;;;5011893;28;20381;-63
2021/06/23 09:06:58;;;;;;;;;;;21.80;51.30;;;;;;5012426;28;19924;-64
2021/06/23 09:09:30;;;;;;;;;;;22.00;51.80;;;;;;5011207;28;19922;-64
2021/06/23 09:11:57;;;;;;;;;;;22.20;52.20;;;;;;4994528;28;19980;-64
2021/06/23 09:14:23;;;;;;;;;;;22.40;52.40;;;;;;5011206;28;19964;-64
2021/06/23 09:17:05;;;;;;;;;;;23.30;54.20;;;;;;4994133;28;20356;-64
2021/06/23 09:19:54;;;;;;;;;;;25.60;56.10;;;;;;4994786;28;19940;-65
2021/06/23 09:22:28;;;;;;;;;;;28.40;54.20;;;;;;5001255;28;19928;-64
2021/06/23 09:24:54;;;;;;;;;;;30.40;48.60;;;;;;5012038;28;19944;-65
2021/06/23 09:27:21;;;;;;;;;;;31.00;45.20;;;;;;5011640;28;20400;-65
2021/06/23 09:29:46;;;;;;;;;;;31.80;44.60;;;;;;5012341;28;19925;-65
2021/06/23 09:32:12;;;;;;;;;;;32.30;42.20;;;;;;5011612;28;19918;-64
2021/06/23 09:34:39;;;;;;;;;;;32.00;40.40;;;;;;5010821;28;19914;-65
2021/06/23 09:37:24;;;;;;;;;;;31.70;40.20;;;;;;5011560;28;19918;-65
2021/06/23 09:39:49;;;;;;;;;;;32.00;39.60;;;;;;5011751;28;20289;-66
2021/06/23 09:42:15;;;;;;;;;;;32.50;38.80;;;;;;5011756;28;19925;-65
2021/06/23 09:44:46;;;;;;;;;;;33.90;40.30;;;;;;5011436;28;20000;-65
2021/06/23 09:47:12;;;;;;;;;;;35.40;38.90;;;;;;5011612;28;20057;-66
2021/06/23 09:49:42;;;;;;;;;;;37.00;37.80;;;;;;5011754;28;19964;-64
2021/06/23 09:52:12;;;;;;;;;;;37.00;34.10;;;;;;5011675;28;19917;-63
2021/06/23 09:54:55;;;;;;;;;;;36.00;33.20;;;;;;5011557;28;19918;-63
2021/06/23 09:57:21;;;;;;;;;;;35.00;32.80;;;;;;5009852;28;19928;-64
2021/06/23 09:59:49;;;;;;;;;;;34.60;33.90;;;;;;5011694;28;19921;-63
2021/06/23 10:02:35;;;;;;;;;;;35.00;34.40;;;;;;5011021;28;20393;-64
2021/06/23 10:05:02;;;;;;;;;;;36.30;34.50;;;;;;4993619;28;20031;-63
2021/06/23 10:07:44;;;;;;;;;;;37.40;33.10;;;;;;4993311;28;19924;-63
2021/06/23 10:10:16;;;;;;;;;;;37.60;31.00;;;;;;5011715;28;20015;-64
2021/06/23 10:12:42;;;;;;;;;;;36.30;30.20;;;;;;5010543;28;19933;-63
2021/06/23 10:15:07;;;;;;;;;;;35.20;30.70;;;;;;5011593;28;19913;-64
2021/06/23 10:17:33;;;;;;;;;;;35.70;32.40;;;;;;5011274;28;19918;-64
2021/06/23 10:20:00;;;;;;;;;;;37.40;32.40;;;;;;5010959;28;19922;-64
2021/06/23 10:22:27;;;;;;;;;;;38.70;31.60;;;;;;5011346;28;20461;-64
2021/06/23 10:24:53;;;;;;;;;;;38.60;29.80;;;;;;5011121;28;20265;-64
2021/06/23 10:27:20;;;;;;;;;;;37.40;28.90;;;;;;5011349;28;19922;-64
2021/06/23 10:29:46;;;;;;;;;;;35.80;28.80;;;;;;5010072;28;19917;-64
2021/06/23 10:32:12;;;;;;;;;;;34.20;29.20;;;;;;5010810;28;19925;-64
2021/06/23 10:34:37;;;;;;;;;;;33.30;30.80;;;;;;5011010;28;20004;-64
2021/06/23 10:37:03;;;;;;;;;;;33.90;32.30;;;;;;5010464;28;20335;-63
2021/06/23 10:39:30;;;;;;;;;;;33.70;30.80;;;;;;5011385;28;19924;-62
2021/06/23 10:42:00;;;;;;;;;;;32.60;30.20;;;;;;5011235;28;19922;-62
2021/06/23 10:44:27;;;;;;;;;;;31.40;31.00;;;;;;5010952;28;20039;-62
2021/06/23 10:46:58;;;;;;;;;;;30.40;31.90;;;;;;5011034;28;19913;-62
2021/06/23 10:49:42;;;;;;;;;;;29.50;32.90;;;;;;5010790;28;19957;-62
2021/06/23 10:52:20;;;;;;;;;;;28.70;33.50;;;;;;5010908;28;20008;-62
2021/06/23 10:54:49;;;;;;;;;;;28.00;34.60;;;;;;5010885;28;19928;-62
2021/06/23 10:57:23;;;;;;;;;;;27.60;35.90;;;;;;5010844;28;19921;-63
2021/06/23 10:59:49;;;;;;;;;;;27.20;36.20;;;;;;5010885;28;19928;-64
2021/06/23 11:02:14;;;;;;;;;;;27.00;36.70;;;;;;5011015;28;19918;-64
2021/06/23 11:05:02;;;;;;;;;;;26.90;37.20;;;;;;5010807;28;19921;-64
2021/06/23 11:07:37;;;;;;;;;;;26.80;37.20;;;;;;5010808;28;20358;-64
2021/06/23 11:10:36;;;;;;;;;;;27.00;38.90;;;;;;5010673;28;20413;-64
2021/06/23 11:13:03;;;;;;;;;;;27.60;38.40;;;;;;5010011;28;19930;-64
2021/06/23 11:15:31;;;;;;;;;;;28.20;37.60;;;;;;5011114;28;19972;-64
2021/06/23 11:18:15;;;;;;;;;;;28.30;37.50;;;;;;5010225;28;20390;-64
2021/06/23 11:20:42;;;;;;;;;;;30.10;39.40;;;;;;5009630;28;19922;-63
2021/06/23 11:23:28;;;;;;;;;;;33.80;38.80;;;;;;5010555;28;19920;-63
2021/06/23 11:25:53;;;;;;;;;;;36.90;36.10;;;;;;5014396;28;20298;-63
2021/06/23 11:28:28;;;;;;;;;;;39.80;33.70;;;;;;4996316;28;19939;-63
2021/06/23 11:30:55;;;;;;;;;;;41.40;30.00;;;;;;5014247;28;19999;-63
2021/06/23 11:33:26;;;;;;;;;;;41.20;28.30;;;;;;5012673;28;20298;-63
2021/06/23 11:35:55;;;;;;;;;;;40.50;27.20;;;;;;5012972;28;19928;-63
2021/06/23 11:38:22;;;;;;;;;;;39.00;26.50;;;;;;5012770;28;19964;-64
2021/06/23 11:40:48;;;;;;;;;;;37.60;26.60;;;;;;5014022;28;19933;-63
2021/06/23 11:43:13;;;;;;;;;;;36.20;26.90;;;;;;5014165;28;19941;-63
2021/06/23 11:45:39;;;;;;;;;;;34.70;27.20;;;;;;5013673;28;20326;-63
2021/06/23 11:48:05;;;;;;;;;;;33.20;27.80;;;;;;5002890;28;20306;-62
2021/06/23 11:50:30;;;;;;;;;;;31.80;28.40;;;;;;5013284;28;19917;-63
2021/06/23 11:52:56;;;;;;;;;;;30.50;29.10;;;;;;5013099;28;20205;-63
2021/06/23 11:55:24;;;;;;;;;;;29.30;30.10;;;;;;5011976;28;19917;-62
2021/06/23 11:57:51;;;;;;;;;;;28.50;31.10;;;;;;5011399;28;20377;-62
2021/06/23 12:00:17;;;;;;;;;;;28.00;32.10;;;;;;5012237;28;20258;-62
2021/06/23 12:02:42;;;;;;;;;;;27.80;33.00;;;;;;5012330;28;19917;-62
2021/06/23 12:05:08;;;;;;;;;;;27.70;33.40;;;;;;5011668;28;19924;-63
2021/06/23 12:07:34;;;;;;;;;;;27.50;33.80;;;;;;5011826;28;19921;-63
2021/06/23 12:10:01;;;;;;;;;;;27.30;34.40;;;;;;5012161;28;20031;-63
2021/06/23 12:12:27;;;;;;;;;;;27.10;35.00;;;;;;5011915;28;19921;-62
2021/06/23 12:14:53;;;;;;;;;;;26.90;35.30;;;;;;5013336;28;20387;-62
2021/06/23 12:17:18;;;;;;;;;;;26.50;35.90;;;;;;5011086;28;19926;-62
2021/06/23 12:19:46;;;;;;;;;;;26.10;36.50;;;;;;5012072;28;19940;-62
2021/06/23 12:22:12;;;;;;;;;;;25.80;36.90;;;;;;5012876;28;19964;-62
2021/06/23 12:24:38;;;;;;;;;;;25.40;37.50;;;;;;5012817;28;19913;-62
2021/06/23 12:27:03;;;;;;;;;;;25.30;38.60;;;;;;5012248;28;20293;-62
2021/06/23 12:29:29;;;;;;;;;;;25.20;39.00;;;;;;5012367;28;19921;-62
2021/06/23 12:31:55;;;;;;;;;;;25.30;39.70;;;;;;5011717;28;19936;-62
2021/06/23 12:34:20;;;;;;;;;;;25.50;39.90;;;;;;5012241;28;20005;-62
2021/06/23 12:36:46;;;;;;;;;;;25.50;40.10;;;;;;5011197;28;19964;-62
2021/06/23 12:39:12;;;;;;;;;;;25.40;40.70;;;;;;5012096;28;19960;-62
2021/06/23 12:41:37;;;;;;;;;;;25.50;41.30;;;;;;5036844;23;19924;-68
2021/06/23 12:44:03;;;;;;;;;;;25.60;41.60;;;;;;5047641;28;20412;-68
2021/06/23 12:46:29;;;;;;;;;;;25.70;41.60;;;;;;5024375;28;19921;-67
2021/06/23 12:48:55;;;;;;;;;;;25.80;41.60;;;;;;5040511;28;20285;-69
2021/06/23 12:51:20;;;;;;;;;;;25.90;41.80;;;;;;5041956;28;19925;-67
2021/06/23 12:53:46;;;;;;;;;;;26.10;42.10;;;;;;5042118;28;20363;-69
2021/06/23 12:56:11;;;;;;;;;;;26.30;41.70;;;;;;5040956;28;19917;-70
2021/06/23 12:58:37;;;;;;;;;;;26.30;41.70;;;;;;5024634;28;19925;-69
2021/06/23 13:01:03;;;;;;;;;;;26.40;42.00;;;;;;5023840;28;20295;-68
2021/06/23 13:03:28;;;;;;;;;;;26.50;42.10;;;;;;5042181;28;19921;-68
2021/06/23 13:05:58;;;;;;;;;;;26.50;42.10;;;;;;5040302;28;19917;-69
2021/06/23 13:08:24;;;;;;;;;;;26.50;42.10;;;;;;5021436;28;19983;-68
2021/06/23 13:10:50;;;;;;;;;;;26.40;42.40;;;;;;5041681;28;20369;-68
2021/06/23 13:13:15;;;;;;;;;;;26.30;42.90;;;;;;5040724;28;19921;-68
2021/06/23 13:15:41;;;;;;;;;;;26.20;42.50;;;;;;5024660;28;19924;-69
2021/06/23 13:18:07;;;;;;;;;;;26.20;43.10;;;;;;5044941;28;20427;-69
2021/06/23 13:20:35;;;;;;;;;;;26.20;42.80;;;;;;5036254;28;20473;-69
2021/06/23 13:23:00;;;;;;;;;;;26.10;42.80;;;;;;5046054;28;19923;-69
2021/06/23 13:25:26;;;;;;;;;;;26.20;43.40;;;;;;5050468;28;20395;-68
2021/06/23 13:27:52;;;;;;;;;;;26.30;42.90;;;;;;5051554;28;20042;-68
2021/06/23 13:30:18;;;;;;;;;;;26.40;42.70;;;;;;5033624;28;19917;-68
2021/06/23 13:32:44;;;;;;;;;;;26.30;42.40;;;;;;5051223;28;20009;-68
2021/06/23 13:35:10;;;;;;;;;;;26.30;43.10;;;;;;5033612;28;19963;-68
2021/06/23 13:37:35;;;;;;;;;;;26.30;42.80;;;;;;5049718;28;20184;-68
2021/06/23 13:40:01;;;;;;;;;;;26.30;42.90;;;;;;5051778;28;19920;-69
2021/06/23 13:42:26;;;;;;;;;;;26.30;43.00;;;;;;5050943;28;19924;-68
2021/06/23 13:44:52;;;;;;;;;;;26.40;43.40;;;;;;5033971;28;19917;-68
2021/06/23 13:47:18;;;;;;;;;;;26.60;43.50;;;;;;5016805;28;19939;-68
2021/06/23 13:49:44;;;;;;;;;;;26.70;43.30;;;;;;5046017;28;20396;-69
2021/06/23 13:52:12;;;;;;;;;;;26.80;43.10;;;;;;5011770;28;20346;-68
2021/06/23 13:54:38;;;;;;;;;;;26.70;42.60;;;;;;5010235;28;19943;-69
2021/06/23 13:57:06;;;;;;;;;;;26.50;43.10;;;;;;4998988;28;19951;-69
2021/06/23 13:59:31;;;;;;;;;;;26.50;43.10;;;;;;5026431;28;20302;-69
2021/06/23 14:01:57;;;;;;;;;;;26.50;42.90;;;;;;5014158;28;19918;-69
2021/06/23 14:04:22;;;;;;;;;;;26.30;42.80;;;;;;4993144;28;19988;-70
2021/06/23 14:06:48;;;;;;;;;;;26.00;43.20;;;;;;5016450;28;19921;-69
2021/06/23 14:09:15;;;;;;;;;;;25.90;43.30;;;;;;5004178;28;19979;-69
2021/06/23 14:11:40;;;;;;;;;;;25.70;43.50;;;;;;5016476;28;19933;-70
2021/06/23 14:14:07;;;;;;;;;;;25.60;44.00;;;;;;5011576;28;19947;-68
2021/06/23 14:16:34;;;;;;;;;;;25.60;44.00;;;;;;5003842;28;19923;-70
2021/06/23 14:19:00;;;;;;;;;;;25.50;44.30;;;;;;4998326;28;20012;-68
2021/06/23 14:21:25;;;;;;;;;;;25.40;44.10;;;;;;5013042;28;19929;-68
2021/06/23 14:23:51;;;;;;;;;;;25.30;44.40;;;;;;5029364;28;19917;-69
2021/06/23 14:26:17;;;;;;;;;;;25.30;44.70;;;;;;5030143;28;20010;-69
2021/06/23 14:28:42;;;;;;;;;;;25.20;44.40;;;;;;5011433;28;19921;-69
2021/06/23 14:31:08;;;;;;;;;;;25.30;44.80;;;;;;5017737;28;20440;-68
2021/06/23 14:33:33;;;;;;;;;;;25.30;45.00;;;;;;5007368;28;20288;-69
2021/06/23 14:36:01;;;;;;;;;;;25.20;44.50;;;;;;5009170;28;19913;-69
2021/06/23 14:38:27;;;;;;;;;;;25.10;44.40;;;;;;5009537;28;20313;-68
2021/06/23 14:40:52;;;;;;;;;;;25.00;44.60;;;;;;5009294;28;19918;-69